sensor_id;sensor_type;location;lat;lon;timestamp;temperature;humidity
22192;DHT22;11261;52.456;10.850;2023-05-10T00:01:43;13.40;95.40
22192;DHT22;11261;52.456;10.850;2023-05-10T00:04:11;13.30;95.60
22192;DHT22;11261;52.456;10.850;2023-05-10T00:06:40;13.30;95.60
22192;DHT22;11261;52.456;10.850;2023-05-10T00:09:08;13.30;95.60
22192;DHT22;11261;52.456;10.850;2023-05-10T00:11:36;13.30;95.60
22192;DHT22;11261;52.456;10.850;2023-05-10T00:14:04;13.30;95.80
22192;DHT22;11261;52.456;10.850;2023-05-10T00:16:34;13.20;95.90
22192;DHT22;11261;52.456;10.850;2023-05-10T00:19:02;13.30;95.90
22192;DHT22;11261;52.456;10.850;2023-05-10T00:21:30;13.20;96.00
22192;DHT22;11261;52.456;10.850;2023-05-10T00:24:00;13.10;96.20
22192;DHT22;11261;52.456;10.850;2023-05-10T00:26:28;13.10;96.40
22192;DHT22;11261;52.456;10.850;2023-05-10T00:28:56;13.00;96.20
22192;DHT22;11261;52.456;10.850;2023-05-10T00:31:25;13.00;96.50
22192;DHT22;11261;52.456;10.850;2023-05-10T00:33:55;13.00;96.70
22192;DHT22;11261;52.456;10.850;2023-05-10T00:36:23;12.90;96.80
22192;DHT22;11261;52.456;10.850;2023-05-10T00:38:52;12.90;96.90
22192;DHT22;11261;52.456;10.850;2023-05-10T00:41:20;12.90;97.00
22192;DHT22;11261;52.456;10.850;2023-05-10T00:43:49;12.80;97.40
22192;DHT22;11261;52.456;10.850;2023-05-10T00:46:17;12.80;96.80
22192;DHT22;11261;52.456;10.850;2023-05-10T00:48:46;12.90;97.10
22192;DHT22;11261;52.456;10.850;2023-05-10T00:51:16;12.80;97.10
22192;DHT22;11261;52.456;10.850;2023-05-10T00:53:44;12.80;97.20
22192;DHT22;11261;52.456;10.850;2023-05-10T00:56:13;12.80;97.30
22192;DHT22;11261;52.456;10.850;2023-05-10T00:58:41;12.70;97.50
22192;DHT22;11261;52.456;10.850;2023-05-10T01:01:10;12.70;97.30
22192;DHT22;11261;52.456;10.850;2023-05-10T01:03:40;12.70;97.50
22192;DHT22;11261;52.456;10.850;2023-05-10T01:06:08;12.70;97.60
22192;DHT22;11261;52.456;10.850;2023-05-10T01:08:39;12.60;97.80
22192;DHT22;11261;52.456;10.850;2023-05-10T01:11:08;12.60;97.60
22192;DHT22;11261;52.456;10.850;2023-05-10T01:13:38;12.60;98.00
22192;DHT22;11261;52.456;10.850;2023-05-10T01:16:07;12.40;98.10
22192;DHT22;11261;52.456;10.850;2023-05-10T01:18:37;12.40;98.40
22192;DHT22;11261;52.456;10.850;2023-05-10T01:21:15;12.20;98.50
22192;DHT22;11261;52.456;10.850;2023-05-10T01:24:12;12.20;98.80
22192;DHT22;11261;52.456;10.850;2023-05-10T01:27:23;12.20;98.80
22192;DHT22;11261;52.456;10.850;2023-05-10T01:30:08;12.10;99.00
22192;DHT22;11261;52.456;10.850;2023-05-10T01:32:48;12.20;99.10
22192;DHT22;11261;52.456;10.850;2023-05-10T01:35:23;12.00;98.60
22192;DHT22;11261;52.456;10.850;2023-05-10T01:37:59;12.00;99.10
22192;DHT22;11261;52.456;10.850;2023-05-10T01:40:37;12.00;99.30
22192;DHT22;11261;52.456;10.850;2023-05-10T01:43:14;12.00;99.50
22192;DHT22;11261;52.456;10.850;2023-05-10T01:45:50;11.90;99.80
22192;DHT22;11261;52.456;10.850;2023-05-10T01:48:20;11.70;99.90
22192;DHT22;11261;52.456;10.850;2023-05-10T01:50:51;11.70;99.90
22192;DHT22;11261;52.456;10.850;2023-05-10T01:53:21;11.70;99.90
22192;DHT22;11261;52.456;10.850;2023-05-10T01:55:53;11.60;99.90
22192;DHT22;11261;52.456;10.850;2023-05-10T01:58:27;11.60;99.90
22192;DHT22;11261;52.456;10.850;2023-05-10T02:00:56;11.50;99.90
22192;DHT22;11261;52.456;10.850;2023-05-10T02:03:28;11.50;99.90
22192;DHT22;11261;52.456;10.850;2023-05-10T02:05:59;11.50;99.90
22192;DHT22;11261;52.456;10.850;2023-05-10T02:08:28;11.50;99.90
22192;DHT22;11261;52.456;10.850;2023-05-10T02:10:58;11.60;99.90
22192;DHT22;11261;52.456;10.850;2023-05-10T02:13:27;11.60;99.90
22192;DHT22;11261;52.456;10.850;2023-05-10T02:15:57;11.50;99.90
22192;DHT22;11261;52.456;10.850;2023-05-10T02:18:28;11.50;99.90
22192;DHT22;11261;52.456;10.850;2023-05-10T02:20:57;11.40;99.90
22192;DHT22;11261;52.456;10.850;2023-05-10T02:23:27;11.50;99.90
22192;DHT22;11261;52.456;10.850;2023-05-10T02:25:57;11.50;99.90
22192;DHT22;11261;52.456;10.850;2023-05-10T02:28:27;11.60;99.90
22192;DHT22;11261;52.456;10.850;2023-05-10T02:30:56;11.60;99.90
22192;DHT22;11261;52.456;10.850;2023-05-10T02:33:27;11.60;99.90
22192;DHT22;11261;52.456;10.850;2023-05-10T02:35:57;11.60;99.90
22192;DHT22;11261;52.456;10.850;2023-05-10T02:38:27;11.60;99.90
22192;DHT22;11261;52.456;10.850;2023-05-10T02:40:56;11.60;99.90
22192;DHT22;11261;52.456;10.850;2023-05-10T02:43:25;11.60;99.90
22192;DHT22;11261;52.456;10.850;2023-05-10T02:45:54;11.60;99.90
22192;DHT22;11261;52.456;10.850;2023-05-10T02:48:22;11.60;99.90
22192;DHT22;11261;52.456;10.850;2023-05-10T02:50:53;11.60;99.90
22192;DHT22;11261;52.456;10.850;2023-05-10T02:53:23;11.60;99.90
22192;DHT22;11261;52.456;10.850;2023-05-10T02:55:58;11.60;99.90
22192;DHT22;11261;52.456;10.850;2023-05-10T02:58:27;11.60;99.90
22192;DHT22;11261;52.456;10.850;2023-05-10T03:00:55;11.60;99.90
22192;DHT22;11261;52.456;10.850;2023-05-10T03:03:23;11.60;99.90
22192;DHT22;11261;52.456;10.850;2023-05-10T03:05:53;11.60;99.90
22192;DHT22;11261;52.456;10.850;2023-05-10T03:08:22;11.60;99.90
22192;DHT22;11261;52.456;10.850;2023-05-10T03:10:59;11.60;99.90
22192;DHT22;11261;52.456;10.850;2023-05-10T03:13:36;11.60;99.90
22192;DHT22;11261;52.456;10.850;2023-05-10T03:16:12;11.60;99.90
22192;DHT22;11261;52.456;10.850;2023-05-10T03:18:44;11.60;99.90
22192;DHT22;11261;52.456;10.850;2023-05-10T03:21:18;11.60;99.90
22192;DHT22;11261;52.456;10.850;2023-05-10T03:23:53;11.50;99.90
22192;DHT22;11261;52.456;10.850;2023-05-10T03:26:27;11.60;99.90
22192;DHT22;11261;52.456;10.850;2023-05-10T03:28:57;11.50;99.90
22192;DHT22;11261;52.456;10.850;2023-05-10T03:31:26;11.60;99.90
22192;DHT22;11261;52.456;10.850;2023-05-10T03:33:55;11.60;99.90
22192;DHT22;11261;52.456;10.850;2023-05-10T03:36:24;11.60;99.90
22192;DHT22;11261;52.456;10.850;2023-05-10T03:38:53;11.60;99.90
22192;DHT22;11261;52.456;10.850;2023-05-10T03:41:21;11.60;99.90
22192;DHT22;11261;52.456;10.850;2023-05-10T03:43:50;11.60;99.90
22192;DHT22;11261;52.456;10.850;2023-05-10T03:46:18;11.60;99.90
22192;DHT22;11261;52.456;10.850;2023-05-10T03:48:46;11.60;99.90
22192;DHT22;11261;52.456;10.850;2023-05-10T03:51:14;11.60;99.90
22192;DHT22;11261;52.456;10.850;2023-05-10T03:53:44;11.60;99.90
22192;DHT22;11261;52.456;10.850;2023-05-10T03:56:12;11.60;99.90
22192;DHT22;11261;52.456;10.850;2023-05-10T03:58:41;11.60;99.90
22192;DHT22;11261;52.456;10.850;2023-05-10T04:01:09;11.60;99.90
22192;DHT22;11261;52.456;10.850;2023-05-10T04:03:38;11.60;99.90
22192;DHT22;11261;52.456;10.850;2023-05-10T04:06:06;11.50;99.90
22192;DHT22;11261;52.456;10.850;2023-05-10T04:08:38;11.50;99.90
22192;DHT22;11261;52.456;10.850;2023-05-10T04:11:08;11.60;99.90
22192;DHT22;11261;52.456;10.850;2023-05-10T04:13:37;11.60;99.90
22192;DHT22;11261;52.456;10.850;2023-05-10T04:16:06;11.60;99.90
22192;DHT22;11261;52.456;10.850;2023-05-10T04:18:34;11.50;99.90
22192;DHT22;11261;52.456;10.850;2023-05-10T04:21:03;11.50;99.90
22192;DHT22;11261;52.456;10.850;2023-05-10T04:23:31;11.50;99.90
22192;DHT22;11261;52.456;10.850;2023-05-10T04:26:00;11.60;99.90
22192;DHT22;11261;52.456;10.850;2023-05-10T04:28:29;11.60;99.90
22192;DHT22;11261;52.456;10.850;2023-05-10T04:31:01;11.60;99.90
22192;DHT22;11261;52.456;10.850;2023-05-10T04:33:30;11.60;99.90
22192;DHT22;11261;52.456;10.850;2023-05-10T04:35:59;11.60;99.90
22192;DHT22;11261;52.456;10.850;2023-05-10T04:38:27;11.60;99.90
22192;DHT22;11261;52.456;10.850;2023-05-10T04:41:04;11.60;99.90
22192;DHT22;11261;52.456;10.850;2023-05-10T04:43:35;11.60;99.90
22192;DHT22;11261;52.456;10.850;2023-05-10T04:46:03;11.70;99.90
22192;DHT22;11261;52.456;10.850;2023-05-10T04:48:31;11.80;99.90
22192;DHT22;11261;52.456;10.850;2023-05-10T04:50:59;11.90;99.90
22192;DHT22;11261;52.456;10.850;2023-05-10T04:53:28;12.10;99.90
22192;DHT22;11261;52.456;10.850;2023-05-10T04:55:56;12.10;99.90
22192;DHT22;11261;52.456;10.850;2023-05-10T04:58:24;12.40;99.90
22192;DHT22;11261;52.456;10.850;2023-05-10T05:00:54;12.70;99.90
22192;DHT22;11261;52.456;10.850;2023-05-10T05:03:22;12.80;99.90
22192;DHT22;11261;52.456;10.850;2023-05-10T05:05:51;13.00;99.90
22192;DHT22;11261;52.456;10.850;2023-05-10T05:08:19;13.10;99.90
22192;DHT22;11261;52.456;10.850;2023-05-10T05:10:48;13.20;99.90
22192;DHT22;11261;52.456;10.850;2023-05-10T05:13:17;13.50;99.90
22192;DHT22;11261;52.456;10.850;2023-05-10T05:15:45;13.70;99.90
22192;DHT22;11261;52.456;10.850;2023-05-10T05:18:15;13.80;99.90
22192;DHT22;11261;52.456;10.850;2023-05-10T05:20:44;13.60;99.90
22192;DHT22;11261;52.456;10.850;2023-05-10T05:23:12;13.40;99.90
22192;DHT22;11261;52.456;10.850;2023-05-10T05:25:40;13.60;99.90
22192;DHT22;11261;52.456;10.850;2023-05-10T05:28:09;13.80;99.90
22192;DHT22;11261;52.456;10.850;2023-05-10T05:30:37;13.60;99.90
22192;DHT22;11261;52.456;10.850;2023-05-10T05:33:05;13.80;99.90
22192;DHT22;11261;52.456;10.850;2023-05-10T05:35:35;13.80;99.90
22192;DHT22;11261;52.456;10.850;2023-05-10T05:38:03;13.60;99.90
22192;DHT22;11261;52.456;10.850;2023-05-10T05:40:31;13.80;99.90
22192;DHT22;11261;52.456;10.850;2023-05-10T05:42:59;14.00;99.90
22192;DHT22;11261;52.456;10.850;2023-05-10T05:45:27;13.90;99.90
22192;DHT22;11261;52.456;10.850;2023-05-10T05:47:56;13.50;99.90
22192;DHT22;11261;52.456;10.850;2023-05-10T05:50:24;13.60;99.90
22192;DHT22;11261;52.456;10.850;2023-05-10T05:52:54;13.50;99.90
22192;DHT22;11261;52.456;10.850;2023-05-10T05:55:23;13.60;99.90
22192;DHT22;11261;52.456;10.850;2023-05-10T05:57:53;13.50;99.90
22192;DHT22;11261;52.456;10.850;2023-05-10T06:00:21;13.30;99.90
22192;DHT22;11261;52.456;10.850;2023-05-10T06:02:50;13.40;99.90
22192;DHT22;11261;52.456;10.850;2023-05-10T06:05:18;13.50;99.90
22192;DHT22;11261;52.456;10.850;2023-05-10T06:07:46;13.40;99.90
22192;DHT22;11261;52.456;10.850;2023-05-10T06:10:16;13.10;99.90
22192;DHT22;11261;52.456;10.850;2023-05-10T06:12:44;13.10;99.90
22192;DHT22;11261;52.456;10.850;2023-05-10T06:15:13;13.10;99.90
22192;DHT22;11261;52.456;10.850;2023-05-10T06:17:41;13.10;99.90
22192;DHT22;11261;52.456;10.850;2023-05-10T06:20:12;13.10;99.90
22192;DHT22;11261;52.456;10.850;2023-05-10T06:22:40;13.10;99.90
22192;DHT22;11261;52.456;10.850;2023-05-10T06:25:10;13.10;99.90
22192;DHT22;11261;52.456;10.850;2023-05-10T06:27:39;13.10;99.90
22192;DHT22;11261;52.456;10.850;2023-05-10T06:30:08;13.10;99.90
22192;DHT22;11261;52.456;10.850;2023-05-10T06:32:39;13.00;99.90
22192;DHT22;11261;52.456;10.850;2023-05-10T06:35:08;13.10;99.90
22192;DHT22;11261;52.456;10.850;2023-05-10T06:37:37;13.20;99.90
22192;DHT22;11261;52.456;10.850;2023-05-10T06:40:06;13.40;99.90
22192;DHT22;11261;52.456;10.850;2023-05-10T06:42:36;13.40;99.90
22192;DHT22;11261;52.456;10.850;2023-05-10T06:45:07;13.30;99.90
22192;DHT22;11261;52.456;10.850;2023-05-10T06:47:35;13.40;99.90
22192;DHT22;11261;52.456;10.850;2023-05-10T06:50:06;13.30;99.90
22192;DHT22;11261;52.456;10.850;2023-05-10T06:52:34;13.50;99.90
22192;DHT22;11261;52.456;10.850;2023-05-10T06:55:04;13.70;99.90
22192;DHT22;11261;52.456;10.850;2023-05-10T06:57:32;13.50;99.90
22192;DHT22;11261;52.456;10.850;2023-05-10T07:00:01;13.70;99.90
22192;DHT22;11261;52.456;10.850;2023-05-10T07:02:32;13.40;99.90
22192;DHT22;11261;52.456;10.850;2023-05-10T07:05:00;13.50;99.90
22192;DHT22;11261;52.456;10.850;2023-05-10T07:07:29;13.40;99.90
22192;DHT22;11261;52.456;10.850;2023-05-10T07:09:58;13.40;99.90
22192;DHT22;11261;52.456;10.850;2023-05-10T07:12:26;13.40;99.90
22192;DHT22;11261;52.456;10.850;2023-05-10T07:14:55;13.30;99.90
22192;DHT22;11261;52.456;10.850;2023-05-10T07:17:23;13.60;99.90
22192;DHT22;11261;52.456;10.850;2023-05-10T07:19:52;13.70;99.90
22192;DHT22;11261;52.456;10.850;2023-05-10T07:22:21;13.90;99.90
22192;DHT22;11261;52.456;10.850;2023-05-10T07:24:49;13.70;99.90
22192;DHT22;11261;52.456;10.850;2023-05-10T07:27:17;13.70;99.90
22192;DHT22;11261;52.456;10.850;2023-05-10T07:29:45;13.90;99.90
22192;DHT22;11261;52.456;10.850;2023-05-10T07:32:14;13.90;99.90
22192;DHT22;11261;52.456;10.850;2023-05-10T07:34:42;14.00;99.90
22192;DHT22;11261;52.456;10.850;2023-05-10T07:37:12;13.80;99.90
22192;DHT22;11261;52.456;10.850;2023-05-10T07:39:40;13.80;99.90
22192;DHT22;11261;52.456;10.850;2023-05-10T07:42:08;14.30;99.90
22192;DHT22;11261;52.456;10.850;2023-05-10T07:44:36;14.10;99.90
22192;DHT22;11261;52.456;10.850;2023-05-10T07:47:05;14.00;99.90
22192;DHT22;11261;52.456;10.850;2023-05-10T07:49:33;14.00;99.90
22192;DHT22;11261;52.456;10.850;2023-05-10T07:52:03;14.00;99.90
22192;DHT22;11261;52.456;10.850;2023-05-10T07:54:32;14.50;99.90
22192;DHT22;11261;52.456;10.850;2023-05-10T07:57:01;14.60;99.90
22192;DHT22;11261;52.456;10.850;2023-05-10T07:59:30;14.70;99.90
22192;DHT22;11261;52.456;10.850;2023-05-10T08:01:59;14.70;99.90
22192;DHT22;11261;52.456;10.850;2023-05-10T08:04:30;14.60;99.90
22192;DHT22;11261;52.456;10.850;2023-05-10T08:06:58;14.90;99.90
22192;DHT22;11261;52.456;10.850;2023-05-10T08:09:26;14.60;99.90
22192;DHT22;11261;52.456;10.850;2023-05-10T08:11:56;15.20;99.90
22192;DHT22;11261;52.456;10.850;2023-05-10T08:14:26;15.40;99.90
22192;DHT22;11261;52.456;10.850;2023-05-10T08:16:54;15.00;99.90
22192;DHT22;11261;52.456;10.850;2023-05-10T08:19:23;14.80;99.90
22192;DHT22;11261;52.456;10.850;2023-05-10T08:21:52;14.70;99.90
22192;DHT22;11261;52.456;10.850;2023-05-10T08:24:23;15.00;99.90
22192;DHT22;11261;52.456;10.850;2023-05-10T08:26:51;15.10;99.90
22192;DHT22;11261;52.456;10.850;2023-05-10T08:29:20;15.50;99.90
22192;DHT22;11261;52.456;10.850;2023-05-10T08:31:48;15.60;99.90
22192;DHT22;11261;52.456;10.850;2023-05-10T08:34:17;15.90;99.90
22192;DHT22;11261;52.456;10.850;2023-05-10T08:36:45;16.00;99.90
22192;DHT22;11261;52.456;10.850;2023-05-10T08:39:13;15.50;99.90
22192;DHT22;11261;52.456;10.850;2023-05-10T08:41:58;15.40;99.90
22192;DHT22;11261;52.456;10.850;2023-05-10T08:44:30;15.50;99.90
22192;DHT22;11261;52.456;10.850;2023-05-10T08:46:59;16.40;99.90
22192;DHT22;11261;52.456;10.850;2023-05-10T08:49:31;16.80;99.90
22192;DHT22;11261;52.456;10.850;2023-05-10T08:52:02;16.20;99.90
22192;DHT22;11261;52.456;10.850;2023-05-10T08:54:32;15.80;99.90
22192;DHT22;11261;52.456;10.850;2023-05-10T08:57:01;16.60;99.90
22192;DHT22;11261;52.456;10.850;2023-05-10T08:59:31;17.00;99.90
22192;DHT22;11261;52.456;10.850;2023-05-10T09:02:00;17.10;99.90
22192;DHT22;11261;52.456;10.850;2023-05-10T09:04:29;16.50;99.90
22192;DHT22;11261;52.456;10.850;2023-05-10T09:06:58;16.50;99.90
22192;DHT22;11261;52.456;10.850;2023-05-10T09:09:27;17.10;99.90
22192;DHT22;11261;52.456;10.850;2023-05-10T09:11:55;16.90;99.90
22192;DHT22;11261;52.456;10.850;2023-05-10T09:14:24;16.20;99.90
22192;DHT22;11261;52.456;10.850;2023-05-10T09:16:54;15.80;99.90
22192;DHT22;11261;52.456;10.850;2023-05-10T09:19:23;16.30;99.90
22192;DHT22;11261;52.456;10.850;2023-05-10T09:21:51;16.30;99.90
22192;DHT22;11261;52.456;10.850;2023-05-10T09:24:19;15.90;99.90
22192;DHT22;11261;52.456;10.850;2023-05-10T09:26:52;15.80;99.90
22192;DHT22;11261;52.456;10.850;2023-05-10T09:29:21;15.80;99.90
22192;DHT22;11261;52.456;10.850;2023-05-10T09:31:50;16.00;99.90
22192;DHT22;11261;52.456;10.850;2023-05-10T09:34:22;16.40;99.90
22192;DHT22;11261;52.456;10.850;2023-05-10T09:36:57;16.40;99.90
22192;DHT22;11261;52.456;10.850;2023-05-10T09:39:31;16.10;99.90
22192;DHT22;11261;52.456;10.850;2023-05-10T09:42:01;16.40;99.90
22192;DHT22;11261;52.456;10.850;2023-05-10T09:44:32;16.50;99.90
22192;DHT22;11261;52.456;10.850;2023-05-10T09:47:00;16.60;99.90
22192;DHT22;11261;52.456;10.850;2023-05-10T09:49:30;16.50;99.90
22192;DHT22;11261;52.456;10.850;2023-05-10T09:52:01;16.60;99.90
22192;DHT22;11261;52.456;10.850;2023-05-10T09:54:30;16.80;99.90
22192;DHT22;11261;52.456;10.850;2023-05-10T09:56:59;16.80;99.90
22192;DHT22;11261;52.456;10.850;2023-05-10T09:59:27;16.70;99.90
22192;DHT22;11261;52.456;10.850;2023-05-10T10:01:56;16.80;99.90
22192;DHT22;11261;52.456;10.850;2023-05-10T10:04:25;16.40;99.90
22192;DHT22;11261;52.456;10.850;2023-05-10T10:07:03;16.50;99.90
22192;DHT22;11261;52.456;10.850;2023-05-10T10:09:32;16.40;99.90
22192;DHT22;11261;52.456;10.850;2023-05-10T10:12:00;16.20;99.90
22192;DHT22;11261;52.456;10.850;2023-05-10T10:14:29;15.40;99.90
22192;DHT22;11261;52.456;10.850;2023-05-10T10:17:00;15.50;99.90
22192;DHT22;11261;52.456;10.850;2023-05-10T10:19:35;15.50;99.90
22192;DHT22;11261;52.456;10.850;2023-05-10T10:22:05;15.80;99.90
22192;DHT22;11261;52.456;10.850;2023-05-10T10:24:34;16.20;99.90
22192;DHT22;11261;52.456;10.850;2023-05-10T10:27:09;16.50;99.90
22192;DHT22;11261;52.456;10.850;2023-05-10T10:29:47;16.60;99.90
22192;DHT22;11261;52.456;10.850;2023-05-10T10:32:22;16.70;99.90
22192;DHT22;11261;52.456;10.850;2023-05-10T10:34:54;16.90;99.90
22192;DHT22;11261;52.456;10.850;2023-05-10T10:37:24;17.00;99.90
22192;DHT22;11261;52.456;10.850;2023-05-10T10:40:26;17.00;99.90
22192;DHT22;11261;52.456;10.850;2023-05-10T10:42:54;16.90;99.90
22192;DHT22;11261;52.456;10.850;2023-05-10T10:45:24;17.10;99.90
22192;DHT22;11261;52.456;10.850;2023-05-10T10:48:21;17.00;99.90
22192;DHT22;11261;52.456;10.850;2023-05-10T10:50:56;17.20;99.90
22192;DHT22;11261;52.456;10.850;2023-05-10T10:53:28;17.30;99.90
22192;DHT22;11261;52.456;10.850;2023-05-10T10:56:05;17.20;99.90
22192;DHT22;11261;52.456;10.850;2023-05-10T10:58:35;17.30;99.90
22192;DHT22;11261;52.456;10.850;2023-05-10T11:01:14;17.00;99.90
22192;DHT22;11261;52.456;10.850;2023-05-10T11:04:17;16.90;99.90
22192;DHT22;11261;52.456;10.850;2023-05-10T11:06:46;17.10;99.90
22192;DHT22;11261;52.456;10.850;2023-05-10T11:09:16;17.10;99.90
22192;DHT22;11261;52.456;10.850;2023-05-10T11:11:52;17.00;99.90
22192;DHT22;11261;52.456;10.850;2023-05-10T11:14:22;16.80;99.90
22192;DHT22;11261;52.456;10.850;2023-05-10T11:16:50;16.80;99.90
22192;DHT22;11261;52.456;10.850;2023-05-10T11:19:19;16.90;99.90
22192;DHT22;11261;52.456;10.850;2023-05-10T11:21:48;16.70;99.90
22192;DHT22;11261;52.456;10.850;2023-05-10T11:24:20;16.80;99.90
22192;DHT22;11261;52.456;10.850;2023-05-10T11:26:50;16.60;99.90
22192;DHT22;11261;52.456;10.850;2023-05-10T11:29:19;16.70;99.90
22192;DHT22;11261;52.456;10.850;2023-05-10T11:31:48;16.90;99.90
22192;DHT22;11261;52.456;10.850;2023-05-10T11:34:27;16.70;99.90
22192;DHT22;11261;52.456;10.850;2023-05-10T11:36:57;16.90;99.90
22192;DHT22;11261;52.456;10.850;2023-05-10T11:39:28;16.90;99.90
22192;DHT22;11261;52.456;10.850;2023-05-10T11:41:57;17.00;99.90
22192;DHT22;11261;52.456;10.850;2023-05-10T11:44:29;16.80;99.90
22192;DHT22;11261;52.456;10.850;2023-05-10T11:46:58;16.70;99.90
22192;DHT22;11261;52.456;10.850;2023-05-10T11:49:27;16.80;99.90
22192;DHT22;11261;52.456;10.850;2023-05-10T11:52:04;16.80;99.90
22192;DHT22;11261;52.456;10.850;2023-05-10T11:54:33;16.80;99.90
22192;DHT22;11261;52.456;10.850;2023-05-10T11:57:03;16.80;99.90
22192;DHT22;11261;52.456;10.850;2023-05-10T11:59:31;17.00;99.90
22192;DHT22;11261;52.456;10.850;2023-05-10T12:02:00;17.00;99.90
22192;DHT22;11261;52.456;10.850;2023-05-10T12:04:28;17.00;99.90
22192;DHT22;11261;52.456;10.850;2023-05-10T12:06:57;16.90;99.90
22192;DHT22;11261;52.456;10.850;2023-05-10T12:09:25;17.10;99.90
22192;DHT22;11261;52.456;10.850;2023-05-10T12:11:57;17.10;99.90
22192;DHT22;11261;52.456;10.850;2023-05-10T12:14:26;17.40;99.90
22192;DHT22;11261;52.456;10.850;2023-05-10T12:16:57;17.40;99.90
22192;DHT22;11261;52.456;10.850;2023-05-10T12:19:25;17.40;99.90
22192;DHT22;11261;52.456;10.850;2023-05-10T12:21:54;17.30;99.90
22192;DHT22;11261;52.456;10.850;2023-05-10T12:24:24;17.10;99.90
22192;DHT22;11261;52.456;10.850;2023-05-10T12:26:52;17.00;99.90
22192;DHT22;11261;52.456;10.850;2023-05-10T12:29:22;16.80;99.90
22192;DHT22;11261;52.456;10.850;2023-05-10T12:31:54;16.60;99.90
22192;DHT22;11261;52.456;10.850;2023-05-10T12:34:29;16.30;99.90
22192;DHT22;11261;52.456;10.850;2023-05-10T12:36:58;16.40;99.90
22192;DHT22;11261;52.456;10.850;2023-05-10T12:39:38;16.50;99.90
22192;DHT22;11261;52.456;10.850;2023-05-10T12:42:07;16.50;99.90
22192;DHT22;11261;52.456;10.850;2023-05-10T12:44:36;16.70;99.90
22192;DHT22;11261;52.456;10.850;2023-05-10T12:47:05;16.80;99.90
22192;DHT22;11261;52.456;10.850;2023-05-10T12:49:33;16.80;99.90
22192;DHT22;11261;52.456;10.850;2023-05-10T12:52:02;16.70;99.90
22192;DHT22;11261;52.456;10.850;2023-05-10T12:54:30;16.70;99.90
22192;DHT22;11261;52.456;10.850;2023-05-10T12:56:58;16.70;99.90
22192;DHT22;11261;52.456;10.850;2023-05-10T12:59:27;16.60;99.90
22192;DHT22;11261;52.456;10.850;2023-05-10T13:01:57;16.70;99.90
22192;DHT22;11261;52.456;10.850;2023-05-10T13:04:25;16.90;99.90
22192;DHT22;11261;52.456;10.850;2023-05-10T13:06:53;17.10;99.90
22192;DHT22;11261;52.456;10.850;2023-05-10T13:09:25;17.20;99.90
22192;DHT22;11261;52.456;10.850;2023-05-10T13:11:53;17.10;99.90
22192;DHT22;11261;52.456;10.850;2023-05-10T13:14:22;17.20;99.90
22192;DHT22;11261;52.456;10.850;2023-05-10T13:16:50;17.30;99.90
22192;DHT22;11261;52.456;10.850;2023-05-10T13:19:20;17.40;99.90
22192;DHT22;11261;52.456;10.850;2023-05-10T13:21:48;17.10;99.90
22192;DHT22;11261;52.456;10.850;2023-05-10T13:24:16;17.30;99.90
22192;DHT22;11261;52.456;10.850;2023-05-10T13:26:45;17.50;99.90
22192;DHT22;11261;52.456;10.850;2023-05-10T13:29:13;17.60;99.90
22192;DHT22;11261;52.456;10.850;2023-05-10T13:31:44;17.60;99.90
22192;DHT22;11261;52.456;10.850;2023-05-10T13:34:12;17.70;99.90
22192;DHT22;11261;52.456;10.850;2023-05-10T13:36:42;18.00;99.90
22192;DHT22;11261;52.456;10.850;2023-05-10T13:39:10;17.90;99.90
22192;DHT22;11261;52.456;10.850;2023-05-10T13:41:38;17.80;99.90
22192;DHT22;11261;52.456;10.850;2023-05-10T13:44:07;17.80;99.90
22192;DHT22;11261;52.456;10.850;2023-05-10T13:46:36;18.00;99.90
22192;DHT22;11261;52.456;10.850;2023-05-10T13:49:05;18.00;99.90
22192;DHT22;11261;52.456;10.850;2023-05-10T13:51:34;18.10;99.90
22192;DHT22;11261;52.456;10.850;2023-05-10T13:54:03;18.20;99.90
22192;DHT22;11261;52.456;10.850;2023-05-10T13:56:32;18.30;99.90
22192;DHT22;11261;52.456;10.850;2023-05-10T13:59:01;18.40;99.90
22192;DHT22;11261;52.456;10.850;2023-05-10T14:01:29;18.50;99.90
22192;DHT22;11261;52.456;10.850;2023-05-10T14:03:58;18.50;99.90
22192;DHT22;11261;52.456;10.850;2023-05-10T14:06:26;18.70;99.90
22192;DHT22;11261;52.456;10.850;2023-05-10T14:08:54;18.70;99.90
22192;DHT22;11261;52.456;10.850;2023-05-10T14:11:24;18.70;99.90
22192;DHT22;11261;52.456;10.850;2023-05-10T14:13:52;18.50;99.90
22192;DHT22;11261;52.456;10.850;2023-05-10T14:16:21;18.80;99.90
22192;DHT22;11261;52.456;10.850;2023-05-10T14:18:49;18.70;99.90
22192;DHT22;11261;52.456;10.850;2023-05-10T14:21:17;18.70;99.90
22192;DHT22;11261;52.456;10.850;2023-05-10T14:23:46;18.60;99.90
22192;DHT22;11261;52.456;10.850;2023-05-10T14:26:14;18.70;99.90
22192;DHT22;11261;52.456;10.850;2023-05-10T14:28:44;18.90;99.90
22192;DHT22;11261;52.456;10.850;2023-05-10T14:31:13;19.10;99.90
22192;DHT22;11261;52.456;10.850;2023-05-10T14:33:43;19.00;99.90
22192;DHT22;11261;52.456;10.850;2023-05-10T14:36:12;18.80;99.90
22192;DHT22;11261;52.456;10.850;2023-05-10T14:38:40;18.70;99.90
22192;DHT22;11261;52.456;10.850;2023-05-10T14:41:08;18.40;99.90
22192;DHT22;11261;52.456;10.850;2023-05-10T14:43:41;17.90;99.90
22192;DHT22;11261;52.456;10.850;2023-05-10T14:46:11;18.60;99.90
22192;DHT22;11261;52.456;10.850;2023-05-10T14:48:39;19.10;99.90
22192;DHT22;11261;52.456;10.850;2023-05-10T14:51:07;19.20;99.90
22192;DHT22;11261;52.456;10.850;2023-05-10T14:53:35;19.10;99.90
22192;DHT22;11261;52.456;10.850;2023-05-10T14:56:04;19.20;99.90
22192;DHT22;11261;52.456;10.850;2023-05-10T14:58:33;19.20;99.90
22192;DHT22;11261;52.456;10.850;2023-05-10T15:01:01;19.00;99.90
22192;DHT22;11261;52.456;10.850;2023-05-10T15:03:31;19.00;99.90
22192;DHT22;11261;52.456;10.850;2023-05-10T15:05:59;18.50;99.90
22192;DHT22;11261;52.456;10.850;2023-05-10T15:08:28;18.40;99.90
22192;DHT22;11261;52.456;10.850;2023-05-10T15:10:56;18.90;99.90
22192;DHT22;11261;52.456;10.850;2023-05-10T15:13:24;19.20;99.90
22192;DHT22;11261;52.456;10.850;2023-05-10T15:15:52;19.40;99.90
22192;DHT22;11261;52.456;10.850;2023-05-10T15:18:21;19.30;99.90
22192;DHT22;11261;52.456;10.850;2023-05-10T15:20:53;19.30;99.90
22192;DHT22;11261;52.456;10.850;2023-05-10T15:23:22;19.30;99.90
22192;DHT22;11261;52.456;10.850;2023-05-10T15:25:50;19.50;99.90
22192;DHT22;11261;52.456;10.850;2023-05-10T15:28:22;19.60;99.90
22192;DHT22;11261;52.456;10.850;2023-05-10T15:30:51;19.60;99.90
22192;DHT22;11261;52.456;10.850;2023-05-10T15:33:19;19.50;99.90